Ekarma-1 — UAEV — position and weather

sailwx.info

Track history (hours):
 
Tides and Currents Weather Stations Pressure Air Temp Water Temp Dewpoint Dewpoint Depression Visibility Wind Speed Wind Dir Waves Ship Positions

Ekarma-1

Last reported at 2017-Nov-17 18:00 UTC. Time now 2017-Nov-18 04:55 UTC.
Position N 75°42' E 016°48'.

Length 54 m; draft 4.6 m.

Type: Fishing. MMSI: 273891300.

Wind from 060 at 23 knots

Barometer 1010.2 mb
Air temperature -0.0 ° C
Visibility: greater than 10.8 NM

Date/timePositionNaut miles runAvg speedWind from/ knotsBaromVisibWave heightAir tempDewpointWater temp
2017-Nov-17 18:00N 75°42' E 016°48'12 0.5 060 / 231010.210.8 -0.0
2017-Nov-16 18:00N 75°30' E 017°00'13 1.1 060 / 161011.210.8 2.0
2017-Nov-16 06:00N 75°42' E 016°42'12 0.5 070 / 211011.210.8 2.0
2017-Nov-15 06:00N 75°30' E 016°48'312 9.9 100 / 191007.210.8 3.0
2017-Nov-13 22:30N 71°26' E 028°13'510.8
2017-Nov-13 22:00N 71°22' E 028°23'59 3.0
2017-Nov-13 02:00N 70°44' E 030°42'4 8.6
2017-Nov-13 01:29N 70°44' E 030°56'3 7.2
2017-Nov-13 01:00N 70°43' E 031°06'4 7.6
2017-Nov-13 00:30N 70°40' E 031°14'4 7.9
2017-Nov-13 00:00N 70°37' E 031°23'4 7.4
2017-Nov-12 23:30N 70°35' E 031°31'4 7.0
2017-Nov-12 23:00N 70°32' E 031°38'94 7.2
2017-Nov-12 10:00N 69°03' E 033°05'3 6.0
2017-Nov-12 09:30N 69°00' E 033°03'3 5.8
2017-Nov-12 09:00N 68°58' E 033°02'1 1.5
2017-Nov-12 08:30N 68°57' E 033°02'0 0.0
2017-Nov-12 07:56N 68°57' E 033°02'0 0.0
2017-Nov-12 07:29N 68°57' E 033°02'0 0.0
2017-Nov-12 07:00N 68°57' E 033°02'0 0.0
2017-Nov-12 06:28N 68°57' E 033°02'0 0.0
2017-Nov-12 05:59N 68°57' E 033°02'0 0.0
2017-Nov-12 05:29N 68°57' E 033°02'0 0.0
2017-Nov-12 05:00N 68°57' E 033°02'0 0.0
2017-Nov-12 04:29N 68°57' E 033°02'0 0.0
2017-Nov-12 03:59N 68°57' E 033°02'0 0.0
2017-Nov-12 03:30N 68°57' E 033°02'0 0.0
2017-Nov-12 02:58N 68°57' E 033°02'0 0.0
2017-Nov-12 02:28N 68°57' E 033°02'0 0.0
2017-Nov-12 02:00N 68°57' E 033°02'0 0.0
2017-Nov-12 01:29N 68°57' E 033°02'0 0.0
2017-Nov-12 00:59N 68°57' E 033°02'0 0.0
2017-Nov-12 00:29N 68°57' E 033°02'0 0.0
2017-Nov-11 23:59N 68°57' E 033°02'0 0.0
2017-Nov-11 23:29N 68°57' E 033°02'0 0.0
2017-Nov-11 23:00N 68°57' E 033°02'0 0.0
2017-Nov-11 22:26N 68°57' E 033°02'0 0.0
2017-Nov-11 21:58N 68°57' E 033°02'0 0.0
2017-Nov-11 21:29N 68°57' E 033°02'0 0.0
2017-Nov-11 20:58N 68°57' E 033°02'0 0.0
2017-Nov-11 20:25N 68°57' E 033°02'0 0.0
2017-Nov-11 20:00N 68°57' E 033°02'0 0.0
2017-Nov-11 19:28N 68°57' E 033°02'0 0.0
2017-Nov-11 18:59N 68°57' E 033°02'0 0.0
2017-Nov-11 18:25N 68°57' E 033°02'0 0.0
2017-Nov-11 18:00N 68°57' E 033°02'0 0.0
2017-Nov-11 17:28N 68°57' E 033°02'0 0.0
2017-Nov-11 16:59N 68°57' E 033°02'0 0.0
2017-Nov-11 16:23N 68°57' E 033°02'0 0.0
2017-Nov-11 16:00N 68°57' E 033°02'0 0.0
2017-Nov-11 15:29N 68°57' E 033°02'0 0.0
2017-Nov-11 14:59N 68°57' E 033°02'0 0.0
2017-Nov-11 14:29N 68°57' E 033°02'0 0.0
2017-Nov-11 13:56N 68°57' E 033°02'0 0.0
2017-Nov-11 13:28N 68°57' E 033°02'0 0.0
2017-Nov-11 12:55N 68°57' E 033°02'0 0.0
2017-Nov-11 12:29N 68°57' E 033°02'0 0.0
2017-Nov-11 11:59N 68°57' E 033°02'0 0.0
2017-Nov-11 11:26N 68°57' E 033°02'0 0.0
2017-Nov-11 11:01N 68°57' E 033°02'0 0.0
2017-Nov-11 10:29N 68°57' E 033°02'0 0.0
2017-Nov-11 09:56N 68°57' E 033°02'0 0.0
2017-Nov-11 09:30N 68°57' E 033°02'0 0.0
2017-Nov-11 08:58N 68°57' E 033°02'0 0.0
2017-Nov-11 08:29N 68°57' E 033°02'0 0.0
2017-Nov-11 07:59N 68°57' E 033°02'0 0.0
2017-Nov-11 07:30N 68°57' E 033°02'0 0.0
2017-Nov-11 07:00N 68°57' E 033°02'0 0.0
2017-Nov-11 06:26N 68°57' E 033°02'0 0.0
2017-Nov-11 06:00N 68°57' E 033°02'0 0.0
2017-Nov-11 05:30N 68°57' E 033°02'0 0.0
2017-Nov-11 04:58N 68°57' E 033°02'0 0.0
2017-Nov-11 04:26N 68°57' E 033°02'0 0.0
2017-Nov-11 04:00N 68°57' E 033°02'0 0.0
2017-Nov-11 03:30N 68°57' E 033°02'0 0.0
2017-Nov-11 02:58N 68°57' E 033°02'0 0.0
2017-Nov-11 02:26N 68°57' E 033°02'0 0.0
2017-Nov-11 02:00N 68°57' E 033°02'0 0.0
2017-Nov-11 01:30N 68°57' E 033°02'0 0.0
2017-Nov-11 00:58N 68°57' E 033°02'0 0.0
2017-Nov-11 00:26N 68°57' E 033°02'0 0.0
2017-Nov-11 00:00N 68°57' E 033°02'0 0.0
2017-Nov-10 23:30N 68°57' E 033°02'0 0.0
2017-Nov-10 22:59N 68°57' E 033°02'0 0.0
2017-Nov-10 22:30N 68°57' E 033°02'0 0.0
2017-Nov-10 22:00N 68°57' E 033°02'0 0.0
2017-Nov-10 21:30N 68°57' E 033°02'0 0.0
2017-Nov-10 20:57N 68°57' E 033°02'0 0.0
2017-Nov-10 20:25N 68°57' E 033°02'0 0.0
2017-Nov-10 19:59N 68°57' E 033°02'0 0.0
2017-Nov-10 19:30N 68°57' E 033°02'0 0.0
2017-Nov-10 18:58N 68°57' E 033°02'0 0.0
2017-Nov-10 18:26N 68°57' E 033°02'0 0.0
2017-Nov-10 18:00N 68°57' E 033°02'0 0.0
2017-Nov-10 17:30N 68°57' E 033°02'0 0.0
2017-Nov-10 16:58N 68°57' E 033°02'0 0.0
2017-Nov-10 16:26N 68°57' E 033°02'0 0.0
2017-Nov-10 16:00N 68°57' E 033°02'0 0.0
2017-Nov-10 15:30N 68°57' E 033°02'0 0.0
2017-Nov-10 14:58N 68°57' E 033°02'0 0.0
2017-Nov-10 14:25N 68°57' E 033°02'0 0.0
2017-Nov-10 13:59N 68°57' E 033°02'0 0.0
2017-Nov-10 13:29N 68°57' E 033°02'0 0.0
2017-Nov-10 12:54N 68°57' E 033°02'0 0.0
2017-Nov-10 12:30N 68°57' E 033°02'0 0.0
2017-Nov-10 11:58N 68°57' E 033°02'0 0.0
2017-Nov-10 11:26N 68°57' E 033°02'0 0.0
2017-Nov-10 10:55N 68°57' E 033°02'0 0.0
2017-Nov-10 10:29N 68°57' E 033°02'0 0.0
2017-Nov-10 09:59N 68°57' E 033°02'0 0.0
2017-Nov-10 09:26N 68°57' E 033°02'0 0.0
2017-Nov-10 08:56N 68°57' E 033°02'0 0.0
2017-Nov-10 08:28N 68°57' E 033°02'0 0.0
2017-Nov-10 07:59N 68°57' E 033°02'0 0.0
2017-Nov-10 07:27N 68°57' E 033°02'0 0.0
2017-Nov-10 07:00N 68°57' E 033°02'0 0.0
2017-Nov-10 06:30N 68°57' E 033°02'0 0.0
2017-Nov-10 05:59N 68°57' E 033°02'0 0.0
2017-Nov-10 05:27N 68°57' E 033°02'0 0.0
2017-Nov-10 04:55N 68°57' E 033°02'0 0.0
2017-Nov-10 04:30N 68°57' E 033°02'0 0.0
2017-Nov-10 03:59N 68°57' E 033°02'0 0.0
2017-Nov-10 03:28N 68°57' E 033°02'0 0.0
2017-Nov-10 03:00N 68°57' E 033°02'0 0.0
2017-Nov-10 02:30N 68°57' E 033°02'0 0.0
2017-Nov-10 01:59N 68°57' E 033°02'0 0.0
2017-Nov-10 01:27N 68°57' E 033°02'0 0.0
2017-Nov-09 22:48N 68°57' E 033°02'0 0.0
2017-Nov-09 20:07N 68°57' E 033°02'0 0.0
2017-Nov-09 18:23N 68°57' E 033°02'0 0.0
2017-Nov-09 13:00N 68°57' E 033°02'0 0.0
2017-Nov-09 12:30N 68°57' E 033°02'0 0.0
2017-Nov-08 20:42N 68°57' E 033°02'0 0.0
2017-Nov-08 19:35N 68°57' E 033°02'0 0.0
2017-Nov-08 19:29N 68°57' E 033°02'0 0.0
2017-Nov-08 06:37N 68°57' E 033°02'0 0.0
2017-Nov-08 06:25N 68°57' E 033°02'0 0.0
2017-Nov-08 05:51N 68°57' E 033°02'0 0.0
2017-Nov-08 03:49N 68°57' E 033°02'0 0.0
2017-Nov-08 00:50N 68°57' E 033°02'0 0.0
2017-Nov-07 20:52N 68°57' E 033°02'0 0.0
2017-Nov-07 20:28N 68°57' E 033°02'0 0.0
2017-Nov-07 18:17N 68°57' E 033°02'  
Track history (hours):
 
Tides and Currents Weather Stations Pressure Air Temp Water Temp Dewpoint Dewpoint Depression Visibility Wind Speed Wind Dir Waves Ship Positions

Ekarma-1

Last reported at 2017-Nov-17 18:00 UTC. Time now 2017-Nov-18 04:55 UTC.
Position N 75°42' E 016°48'.

Length 54 m; draft 4.6 m.

Type: Fishing. MMSI: 273891300.

Wind from 060 at 23 knots

Barometer 1010.2 mb
Air temperature -0.0 ° C
Visibility: greater than 10.8 NM

Date/timePositionNaut miles runAvg speedWind from/ knotsBaromVisibWave heightAir tempDewpointWater temp
2017-Nov-17 18:00N 75°42' E 016°48'12 0.5 060 / 231010.210.8 -0.0
2017-Nov-16 18:00N 75°30' E 017°00'13 1.1 060 / 161011.210.8 2.0
2017-Nov-16 06:00N 75°42' E 016°42'12 0.5 070 / 211011.210.8 2.0
2017-Nov-15 06:00N 75°30' E 016°48'312 9.9 100 / 191007.210.8 3.0
2017-Nov-13 22:30N 71°26' E 028°13'510.8
2017-Nov-13 22:00N 71°22' E 028°23'59 3.0
2017-Nov-13 02:00N 70°44' E 030°42'4 8.6
2017-Nov-13 01:29N 70°44' E 030°56'3 7.2
2017-Nov-13 01:00N 70°43' E 031°06'4 7.6
2017-Nov-13 00:30N 70°40' E 031°14'4 7.9
2017-Nov-13 00:00N 70°37' E 031°23'4 7.4
2017-Nov-12 23:30N 70°35' E 031°31'4 7.0
2017-Nov-12 23:00N 70°32' E 031°38'94 7.2
2017-Nov-12 10:00N 69°03' E 033°05'3 6.0
2017-Nov-12 09:30N 69°00' E 033°03'3 5.8
2017-Nov-12 09:00N 68°58' E 033°02'1 1.5
2017-Nov-12 08:30N 68°57' E 033°02'0 0.0
2017-Nov-12 07:56N 68°57' E 033°02'0 0.0
2017-Nov-12 07:29N 68°57' E 033°02'0 0.0
2017-Nov-12 07:00N 68°57' E 033°02'0 0.0
2017-Nov-12 06:28N 68°57' E 033°02'0 0.0
2017-Nov-12 05:59N 68°57' E 033°02'0 0.0
2017-Nov-12 05:29N 68°57' E 033°02'0 0.0
2017-Nov-12 05:00N 68°57' E 033°02'0 0.0
2017-Nov-12 04:29N 68°57' E 033°02'0 0.0
2017-Nov-12 03:59N 68°57' E 033°02'0 0.0
2017-Nov-12 03:30N 68°57' E 033°02'0 0.0
2017-Nov-12 02:58N 68°57' E 033°02'0 0.0
2017-Nov-12 02:28N 68°57' E 033°02'0 0.0
2017-Nov-12 02:00N 68°57' E 033°02'0 0.0
2017-Nov-12 01:29N 68°57' E 033°02'0 0.0
2017-Nov-12 00:59N 68°57' E 033°02'0 0.0
2017-Nov-12 00:29N 68°57' E 033°02'0 0.0
2017-Nov-11 23:59N 68°57' E 033°02'0 0.0
2017-Nov-11 23:29N 68°57' E 033°02'0 0.0
2017-Nov-11 23:00N 68°57' E 033°02'0 0.0
2017-Nov-11 22:26N 68°57' E 033°02'0 0.0
2017-Nov-11 21:58N 68°57' E 033°02'0 0.0
2017-Nov-11 21:29N 68°57' E 033°02'0 0.0
2017-Nov-11 20:58N 68°57' E 033°02'0 0.0
2017-Nov-11 20:25N 68°57' E 033°02'0 0.0
2017-Nov-11 20:00N 68°57' E 033°02'0 0.0
2017-Nov-11 19:28N 68°57' E 033°02'0 0.0
2017-Nov-11 18:59N 68°57' E 033°02'0 0.0
2017-Nov-11 18:25N 68°57' E 033°02'0 0.0
2017-Nov-11 18:00N 68°57' E 033°02'0 0.0
2017-Nov-11 17:28N 68°57' E 033°02'0 0.0
2017-Nov-11 16:59N 68°57' E 033°02'0 0.0
2017-Nov-11 16:23N 68°57' E 033°02'0 0.0
2017-Nov-11 16:00N 68°57' E 033°02'0 0.0
2017-Nov-11 15:29N 68°57' E 033°02'0 0.0
2017-Nov-11 14:59N 68°57' E 033°02'0 0.0
2017-Nov-11 14:29N 68°57' E 033°02'0 0.0
2017-Nov-11 13:56N 68°57' E 033°02'0 0.0
2017-Nov-11 13:28N 68°57' E 033°02'0 0.0
2017-Nov-11 12:55N 68°57' E 033°02'0 0.0
2017-Nov-11 12:29N 68°57' E 033°02'0 0.0
2017-Nov-11 11:59N 68°57' E 033°02'0 0.0
2017-Nov-11 11:26N 68°57' E 033°02'0 0.0
2017-Nov-11 11:01N 68°57' E 033°02'0 0.0
2017-Nov-11 10:29N 68°57' E 033°02'0 0.0
2017-Nov-11 09:56N 68°57' E 033°02'0 0.0
2017-Nov-11 09:30N 68°57' E 033°02'0 0.0
2017-Nov-11 08:58N 68°57' E 033°02'0 0.0
2017-Nov-11 08:29N 68°57' E 033°02'0 0.0
2017-Nov-11 07:59N 68°57' E 033°02'0 0.0
2017-Nov-11 07:30N 68°57' E 033°02'0 0.0
2017-Nov-11 07:00N 68°57' E 033°02'0 0.0
2017-Nov-11 06:26N 68°57' E 033°02'0 0.0
2017-Nov-11 06:00N 68°57' E 033°02'0 0.0
2017-Nov-11 05:30N 68°57' E 033°02'0 0.0
2017-Nov-11 04:58N 68°57' E 033°02'0 0.0
2017-Nov-11 04:26N 68°57' E 033°02'0 0.0
2017-Nov-11 04:00N 68°57' E 033°02'0 0.0
2017-Nov-11 03:30N 68°57' E 033°02'0 0.0
2017-Nov-11 02:58N 68°57' E 033°02'0 0.0
2017-Nov-11 02:26N 68°57' E 033°02'0 0.0
2017-Nov-11 02:00N 68°57' E 033°02'0 0.0
2017-Nov-11 01:30N 68°57' E 033°02'0 0.0
2017-Nov-11 00:58N 68°57' E 033°02'0 0.0
2017-Nov-11 00:26N 68°57' E 033°02'0 0.0
2017-Nov-11 00:00N 68°57' E 033°02'0 0.0
2017-Nov-10 23:30N 68°57' E 033°02'0 0.0
2017-Nov-10 22:59N 68°57' E 033°02'0 0.0
2017-Nov-10 22:30N 68°57' E 033°02'0 0.0
2017-Nov-10 22:00N 68°57' E 033°02'0 0.0
2017-Nov-10 21:30N 68°57' E 033°02'0 0.0
2017-Nov-10 20:57N 68°57' E 033°02'0 0.0
2017-Nov-10 20:25N 68°57' E 033°02'0 0.0
2017-Nov-10 19:59N 68°57' E 033°02'0 0.0
2017-Nov-10 19:30N 68°57' E 033°02'0 0.0
2017-Nov-10 18:58N 68°57' E 033°02'0 0.0
2017-Nov-10 18:26N 68°57' E 033°02'0 0.0
2017-Nov-10 18:00N 68°57' E 033°02'0 0.0
2017-Nov-10 17:30N 68°57' E 033°02'0 0.0
2017-Nov-10 16:58N 68°57' E 033°02'0 0.0
2017-Nov-10 16:26N 68°57' E 033°02'0 0.0
2017-Nov-10 16:00N 68°57' E 033°02'0 0.0
2017-Nov-10 15:30N 68°57' E 033°02'0 0.0
2017-Nov-10 14:58N 68°57' E 033°02'0 0.0
2017-Nov-10 14:25N 68°57' E 033°02'0 0.0
2017-Nov-10 13:59N 68°57' E 033°02'0 0.0
2017-Nov-10 13:29N 68°57' E 033°02'0 0.0
2017-Nov-10 12:54N 68°57' E 033°02'0 0.0
2017-Nov-10 12:30N 68°57' E 033°02'0 0.0
2017-Nov-10 11:58N 68°57' E 033°02'0 0.0
2017-Nov-10 11:26N 68°57' E 033°02'0 0.0
2017-Nov-10 10:55N 68°57' E 033°02'0 0.0
2017-Nov-10 10:29N 68°57' E 033°02'0 0.0
2017-Nov-10 09:59N 68°57' E 033°02'0 0.0
2017-Nov-10 09:26N 68°57' E 033°02'0 0.0
2017-Nov-10 08:56N 68°57' E 033°02'0 0.0
2017-Nov-10 08:28N 68°57' E 033°02'0 0.0
2017-Nov-10 07:59N 68°57' E 033°02'0 0.0
2017-Nov-10 07:27N 68°57' E 033°02'0 0.0
2017-Nov-10 07:00N 68°57' E 033°02'0 0.0
2017-Nov-10 06:30N 68°57' E 033°02'0 0.0
2017-Nov-10 05:59N 68°57' E 033°02'0 0.0
2017-Nov-10 05:27N 68°57' E 033°02'0 0.0
2017-Nov-10 04:55N 68°57' E 033°02'0 0.0
2017-Nov-10 04:30N 68°57' E 033°02'0 0.0
2017-Nov-10 03:59N 68°57' E 033°02'0 0.0
2017-Nov-10 03:28N 68°57' E 033°02'0 0.0
2017-Nov-10 03:00N 68°57' E 033°02'0 0.0
2017-Nov-10 02:30N 68°57' E 033°02'0 0.0
2017-Nov-10 01:59N 68°57' E 033°02'0 0.0
2017-Nov-10 01:27N 68°57' E 033°02'0 0.0
2017-Nov-09 22:48N 68°57' E 033°02'0 0.0
2017-Nov-09 20:07N 68°57' E 033°02'0 0.0
2017-Nov-09 18:23N 68°57' E 033°02'0 0.0
2017-Nov-09 13:00N 68°57' E 033°02'0 0.0
2017-Nov-09 12:30N 68°57' E 033°02'0 0.0
2017-Nov-08 20:42N 68°57' E 033°02'0 0.0
2017-Nov-08 19:35N 68°57' E 033°02'0 0.0
2017-Nov-08 19:29N 68°57' E 033°02'0 0.0
2017-Nov-08 06:37N 68°57' E 033°02'0 0.0
2017-Nov-08 06:25N 68°57' E 033°02'0 0.0
2017-Nov-08 05:51N 68°57' E 033°02'0 0.0
2017-Nov-08 03:49N 68°57' E 033°02'0 0.0
2017-Nov-08 00:50N 68°57' E 033°02'0 0.0
2017-Nov-07 20:52N 68°57' E 033°02'0 0.0
2017-Nov-07 20:28N 68°57' E 033°02'0 0.0
2017-Nov-07 18:17N 68°57' E 033°02'  

Dump ship's entire track history